sensor_id;sensor_type;location;lat;lon;timestamp;pressure;altitude;pressure_sealevel;temperature;humidity
62708;BME280;48769;51.624;5.886;2023-05-01T00:00:21;101580.69;;;12.93;79.38
62708;BME280;48769;51.624;5.886;2023-05-01T00:02:46;101578.19;;;12.90;79.44
62708;BME280;48769;51.624;5.886;2023-05-01T00:05:11;101572.97;;;12.89;78.81
62708;BME280;48769;51.624;5.886;2023-05-01T00:07:37;101572.97;;;12.89;79.14
62708;BME280;48769;51.624;5.886;2023-05-01T00:10:02;101569.38;;;12.90;79.71
62708;BME280;48769;51.624;5.886;2023-05-01T00:12:28;101578.28;;;12.89;79.52
62708;BME280;48769;51.624;5.886;2023-05-01T00:14:53;101554.72;;;12.82;79.55
62708;BME280;48769;51.624;5.886;2023-05-01T00:17:19;101561.13;;;12.78;79.91
62708;BME280;48769;51.624;5.886;2023-05-01T00:19:50;101559.47;;;12.76;80.02
62708;BME280;48769;51.624;5.886;2023-05-01T00:22:15;101560.31;;;12.76;80.27
62708;BME280;48769;51.624;5.886;2023-05-01T00:24:41;101541.38;;;12.67;79.47
62708;BME280;48769;51.624;5.886;2023-05-01T00:27:06;101547.53;;;12.67;79.64
62708;BME280;48769;51.624;5.886;2023-05-01T00:29:32;101542.22;;;12.67;79.49
62708;BME280;48769;51.624;5.886;2023-05-01T00:31:57;101539.56;;;12.67;79.68
62708;BME280;48769;51.624;5.886;2023-05-01T00:34:22;101540.34;;;12.69;79.31
62708;BME280;48769;51.624;5.886;2023-05-01T00:36:49;101533.25;;;12.70;78.97
62708;BME280;48769;51.624;5.886;2023-05-01T00:39:14;101531.47;;;12.70;78.84
62708;BME280;48769;51.624;5.886;2023-05-01T00:41:40;101534.25;;;12.67;78.41
62708;BME280;48769;51.624;5.886;2023-05-01T00:44:05;101531.84;;;12.62;78.77
62708;BME280;48769;51.624;5.886;2023-05-01T00:46:33;101532.94;;;12.58;78.29
62708;BME280;48769;51.624;5.886;2023-05-01T00:48:58;101527.69;;;12.57;78.67
62708;BME280;48769;51.624;5.886;2023-05-01T00:51:25;101517.91;;;12.59;79.74
62708;BME280;48769;51.624;5.886;2023-05-01T00:53:51;101523.19;;;12.59;80.13
62708;BME280;48769;51.624;5.886;2023-05-01T00:56:17;101516.34;;;12.55;79.06
62708;BME280;48769;51.624;5.886;2023-05-01T00:58:44;101512.03;;;12.52;78.71
62708;BME280;48769;51.624;5.886;2023-05-01T01:01:11;101504.28;;;12.48;78.46
62708;BME280;48769;51.624;5.886;2023-05-01T01:03:37;101507.75;;;12.50;79.37
62708;BME280;48769;51.624;5.886;2023-05-01T01:06:09;101506.09;;;12.47;80.36
62708;BME280;48769;51.624;5.886;2023-05-01T01:08:46;101500.09;;;12.44;80.13
62708;BME280;48769;51.624;5.886;2023-05-01T01:14:10;101492.28;;;12.40;80.66
62708;BME280;48769;51.624;5.886;2023-05-01T01:17:05;101491.56;;;12.37;81.22
62708;BME280;48769;51.624;5.886;2023-05-01T01:22:20;101492.44;;;12.37;81.76
62708;BME280;48769;51.624;5.886;2023-05-01T01:25:02;101490.72;;;12.36;81.25
62708;BME280;48769;51.624;5.886;2023-05-01T01:33:48;101477.91;;;12.27;81.29
62708;BME280;48769;51.624;5.886;2023-05-01T01:36:36;101475.41;;;12.24;81.44
62708;BME280;48769;51.624;5.886;2023-05-01T01:39:09;101458.66;;;12.24;81.04
62708;BME280;48769;51.624;5.886;2023-05-01T01:41:38;101464.19;;;12.19;81.42
62708;BME280;48769;51.624;5.886;2023-05-01T01:44:14;101458.03;;;12.19;81.33
62708;BME280;48769;51.624;5.886;2023-05-01T01:46:41;101458.97;;;12.18;81.13
62708;BME280;48769;51.624;5.886;2023-05-01T01:49:12;101447.59;;;12.15;81.17
62708;BME280;48769;51.624;5.886;2023-05-01T01:51:40;101449.22;;;12.18;81.05
62708;BME280;48769;51.624;5.886;2023-05-01T01:54:07;101439.47;;;12.19;81.41
62708;BME280;48769;51.624;5.886;2023-05-01T01:56:34;101443.94;;;12.18;81.52
62708;BME280;48769;51.624;5.886;2023-05-01T01:59:03;101449.50;;;12.12;81.71
62708;BME280;48769;51.624;5.886;2023-05-01T02:01:30;101433.63;;;12.12;81.82
62708;BME280;48769;51.624;5.886;2023-05-01T02:03:57;101431.91;;;12.11;81.91
62708;BME280;48769;51.624;5.886;2023-05-01T02:06:24;101433.78;;;12.09;81.61
62708;BME280;48769;51.624;5.886;2023-05-01T02:08:52;101438.91;;;12.12;83.09
62708;BME280;48769;51.624;5.886;2023-05-01T02:11:19;101429.34;;;12.09;82.30
62708;BME280;48769;51.624;5.886;2023-05-01T02:13:47;101429.41;;;12.08;81.97
62708;BME280;48769;51.624;5.886;2023-05-01T02:16:14;101425.06;;;12.07;81.81
62708;BME280;48769;51.624;5.886;2023-05-01T02:18:40;101418.81;;;12.08;81.70
62708;BME280;48769;51.624;5.886;2023-05-01T02:21:08;101419.75;;;12.07;82.18
62708;BME280;48769;51.624;5.886;2023-05-01T02:23:35;101421.56;;;12.06;82.40
62708;BME280;48769;51.624;5.886;2023-05-01T02:26:02;101422.31;;;12.08;82.03
62708;BME280;48769;51.624;5.886;2023-05-01T02:28:28;101414.31;;;12.10;82.21
62708;BME280;48769;51.624;5.886;2023-05-01T02:30:54;101409.94;;;12.09;82.61
62708;BME280;48769;51.624;5.886;2023-05-01T02:33:21;101408.16;;;12.09;82.67
62708;BME280;48769;51.624;5.886;2023-05-01T02:35:46;101409.09;;;12.08;82.54
62708;BME280;48769;51.624;5.886;2023-05-01T02:38:12;101409.16;;;12.07;82.78
62708;BME280;48769;51.624;5.886;2023-05-01T02:40:42;101404.72;;;12.07;82.56
62708;BME280;48769;51.624;5.886;2023-05-01T02:43:11;101403.03;;;12.06;82.67
62708;BME280;48769;51.624;5.886;2023-05-01T02:45:39;101405.72;;;12.05;83.43
62708;BME280;48769;51.624;5.886;2023-05-01T02:48:06;101398.72;;;12.04;82.78
62708;BME280;48769;51.624;5.886;2023-05-01T02:50:35;101399.88;;;11.98;83.25
62708;BME280;48769;51.624;5.886;2023-05-01T02:53:01;101393.56;;;12.01;82.91
62708;BME280;48769;51.624;5.886;2023-05-01T02:55:27;101387.56;;;11.97;82.75
62708;BME280;48769;51.624;5.886;2023-05-01T02:57:57;101384.13;;;11.95;82.96
62708;BME280;48769;51.624;5.886;2023-05-01T03:00:22;101383.28;;;11.95;84.02
62708;BME280;48769;51.624;5.886;2023-05-01T03:02:47;101375.44;;;11.93;83.32
62708;BME280;48769;51.624;5.886;2023-05-01T03:05:13;101374.72;;;11.89;84.05
62708;BME280;48769;51.624;5.886;2023-05-01T03:07:38;101372.97;;;11.88;84.08
62708;BME280;48769;51.624;5.886;2023-05-01T03:10:04;101373.13;;;11.85;83.88
62708;BME280;48769;51.624;5.886;2023-05-01T03:12:30;101370.53;;;11.84;84.48
62708;BME280;48769;51.624;5.886;2023-05-01T03:14:56;101373.13;;;11.85;83.93
62708;BME280;48769;51.624;5.886;2023-05-01T03:17:21;101369.69;;;11.83;84.31
62708;BME280;48769;51.624;5.886;2023-05-01T03:19:47;101375.13;;;11.80;84.82
62708;BME280;48769;51.624;5.886;2023-05-01T03:22:13;101372.69;;;11.76;84.76
62708;BME280;48769;51.624;5.886;2023-05-01T03:24:38;101373.53;;;11.76;85.34
62708;BME280;48769;51.624;5.886;2023-05-01T03:27:03;101369.88;;;11.79;85.46
62708;BME280;48769;51.624;5.886;2023-05-01T03:29:29;101369.84;;;11.80;85.33
62708;BME280;48769;51.624;5.886;2023-05-01T03:31:55;101355.75;;;11.80;84.84
62708;BME280;48769;51.624;5.886;2023-05-01T03:34:21;101356.88;;;11.74;84.43
62708;BME280;48769;51.624;5.886;2023-05-01T03:36:47;101349.53;;;11.62;84.18
62708;BME280;48769;51.624;5.886;2023-05-01T03:39:12;101347.81;;;11.61;84.01
62708;BME280;48769;51.624;5.886;2023-05-01T03:41:37;101346.22;;;11.57;84.27
62708;BME280;48769;51.624;5.886;2023-05-01T03:44:03;101341.25;;;11.51;84.42
62708;BME280;48769;51.624;5.886;2023-05-01T03:46:28;101342.97;;;11.52;84.63
62708;BME280;48769;51.624;5.886;2023-05-01T03:48:54;101342.03;;;11.53;85.76
62708;BME280;48769;51.624;5.886;2023-05-01T03:51:19;101344.66;;;11.53;86.20
62708;BME280;48769;51.624;5.886;2023-05-01T03:53:45;101329.88;;;11.49;87.04
62708;BME280;48769;51.624;5.886;2023-05-01T03:56:10;101337.03;;;11.46;87.62
62708;BME280;48769;51.624;5.886;2023-05-01T03:58:35;101337.81;;;11.49;88.45
62708;BME280;48769;51.624;5.886;2023-05-01T04:01:01;101337.72;;;11.50;88.72
62708;BME280;48769;51.624;5.886;2023-05-01T04:03:27;101337.69;;;11.52;89.64
62708;BME280;48769;51.624;5.886;2023-05-01T04:05:52;101336.72;;;11.53;89.31
62708;BME280;48769;51.624;5.886;2023-05-01T04:08:18;101327.94;;;11.52;88.98
62708;BME280;48769;51.624;5.886;2023-05-01T04:10:43;101330.69;;;11.51;89.72
62708;BME280;48769;51.624;5.886;2023-05-01T04:13:09;101333.53;;;11.46;89.73
62708;BME280;48769;51.624;5.886;2023-05-01T04:15:36;101321.38;;;11.42;89.44
62708;BME280;48769;51.624;5.886;2023-05-01T04:18:02;101326.44;;;11.46;89.63
62708;BME280;48769;51.624;5.886;2023-05-01T04:20:28;101321.25;;;11.45;89.33
62708;BME280;48769;51.624;5.886;2023-05-01T04:22:53;101323.09;;;11.43;90.00
62708;BME280;48769;51.624;5.886;2023-05-01T04:25:19;101322.94;;;11.46;90.46
62708;BME280;48769;51.624;5.886;2023-05-01T04:27:44;101322.78;;;11.49;90.25
62708;BME280;48769;51.624;5.886;2023-05-01T04:30:10;101322.88;;;11.48;90.24
62708;BME280;48769;51.624;5.886;2023-05-01T04:32:35;101323.78;;;11.46;89.95
62708;BME280;48769;51.624;5.886;2023-05-01T04:35:00;101315.84;;;11.46;89.20
62708;BME280;48769;51.624;5.886;2023-05-01T04:37:26;101314.81;;;11.51;88.17
62708;BME280;48769;51.624;5.886;2023-05-01T04:39:51;101312.00;;;11.54;87.93
62708;BME280;48769;51.624;5.886;2023-05-01T04:42:17;101316.22;;;11.58;87.97
62708;BME280;48769;51.624;5.886;2023-05-01T04:44:44;101314.44;;;11.58;89.13
62708;BME280;48769;51.624;5.886;2023-05-01T04:47:09;101323.31;;;11.57;89.01
62708;BME280;48769;51.624;5.886;2023-05-01T04:49:35;101314.47;;;11.57;89.34
62708;BME280;48769;51.624;5.886;2023-05-01T04:52:00;101312.63;;;11.59;90.10
62708;BME280;48769;51.624;5.886;2023-05-01T04:54:26;101319.47;;;11.63;90.78
62708;BME280;48769;51.624;5.886;2023-05-01T04:56:51;101317.47;;;11.68;91.00
62708;BME280;48769;51.624;5.886;2023-05-01T04:59:17;101312.03;;;11.71;90.19
62708;BME280;48769;51.624;5.886;2023-05-01T05:01:42;101313.59;;;11.75;89.89
62708;BME280;48769;51.624;5.886;2023-05-01T05:04:08;101312.66;;;11.76;88.95
62708;BME280;48769;51.624;5.886;2023-05-01T05:06:33;101311.75;;;11.77;88.70
62708;BME280;48769;51.624;5.886;2023-05-01T05:08:59;101309.88;;;11.79;88.73
62708;BME280;48769;51.624;5.886;2023-05-01T05:11:24;101313.31;;;11.81;89.13
62708;BME280;48769;51.624;5.886;2023-05-01T05:13:50;101298.16;;;11.85;89.01
62708;BME280;48769;51.624;5.886;2023-05-01T05:16:16;101308.53;;;11.89;88.86
62708;BME280;48769;51.624;5.886;2023-05-01T05:18:41;101306.09;;;11.85;86.78
62708;BME280;48769;51.624;5.886;2023-05-01T05:21:07;101307.59;;;11.90;86.42
62708;BME280;48769;51.624;5.886;2023-05-01T05:23:35;101309.94;;;11.97;86.42
62708;BME280;48769;51.624;5.886;2023-05-01T05:26:02;101307.00;;;12.03;85.21
62708;BME280;48769;51.624;5.886;2023-05-01T05:28:28;101314.94;;;12.03;85.05
62708;BME280;48769;51.624;5.886;2023-05-01T05:30:54;101321.00;;;12.05;84.82
62708;BME280;48769;51.624;5.886;2023-05-01T05:33:20;101312.84;;;12.09;84.75
62708;BME280;48769;51.624;5.886;2023-05-01T05:35:46;101311.25;;;12.05;84.92
62708;BME280;48769;51.624;5.886;2023-05-01T05:38:11;101312.34;;;12.01;84.80
62708;BME280;48769;51.624;5.886;2023-05-01T05:40:36;101310.00;;;11.95;85.57
62708;BME280;48769;51.624;5.886;2023-05-01T05:43:02;101315.22;;;11.97;85.97
62708;BME280;48769;51.624;5.886;2023-05-01T05:45:27;101311.88;;;11.93;86.25
62708;BME280;48769;51.624;5.886;2023-05-01T05:47:53;101322.03;;;11.83;87.20
62708;BME280;48769;51.624;5.886;2023-05-01T05:50:18;101322.78;;;11.87;86.67
62708;BME280;48769;51.624;5.886;2023-05-01T05:52:43;101325.03;;;11.95;86.75
62708;BME280;48769;51.624;5.886;2023-05-01T05:55:09;101321.59;;;11.92;85.57
62708;BME280;48769;51.624;5.886;2023-05-01T05:57:34;101318.47;;;11.84;85.42
62708;BME280;48769;51.624;5.886;2023-05-01T06:00:02;101321.44;;;11.96;84.99
62708;BME280;48769;51.624;5.886;2023-05-01T06:02:30;101323.09;;;11.98;85.69
62708;BME280;48769;51.624;5.886;2023-05-01T06:04:56;101314.13;;;12.01;84.83
62708;BME280;48769;51.624;5.886;2023-05-01T06:07:22;101311.78;;;11.95;85.32
62708;BME280;48769;51.624;5.886;2023-05-01T06:09:48;101328.03;;;12.06;86.04
62708;BME280;48769;51.624;5.886;2023-05-01T06:12:13;101312.88;;;12.08;85.07
62708;BME280;48769;51.624;5.886;2023-05-01T06:14:39;101311.78;;;11.95;85.27
62708;BME280;48769;51.624;5.886;2023-05-01T06:17:05;101314.69;;;12.07;85.42
62708;BME280;48769;51.624;5.886;2023-05-01T06:19:31;101310.63;;;12.18;85.22
62708;BME280;48769;51.624;5.886;2023-05-01T06:21:57;101306.44;;;11.96;84.47
62708;BME280;48769;51.624;5.886;2023-05-01T06:24:22;101315.53;;;12.08;84.89
62708;BME280;48769;51.624;5.886;2023-05-01T06:26:47;101308.63;;;12.23;85.19
62708;BME280;48769;51.624;5.886;2023-05-01T06:29:13;101307.22;;;12.33;84.95
62708;BME280;48769;51.624;5.886;2023-05-01T06:31:38;101309.25;;;12.45;84.89
62708;BME280;48769;51.624;5.886;2023-05-01T06:34:03;101313.31;;;12.35;85.17
62708;BME280;48769;51.624;5.886;2023-05-01T06:36:29;101312.44;;;12.52;85.32
62708;BME280;48769;51.624;5.886;2023-05-01T06:38:55;101309.09;;;12.64;84.48
62708;BME280;48769;51.624;5.886;2023-05-01T06:41:20;101308.66;;;12.56;84.59
62708;BME280;48769;51.624;5.886;2023-05-01T06:43:46;101310.84;;;12.65;85.26
62708;BME280;48769;51.624;5.886;2023-05-01T06:46:12;101310.25;;;12.76;84.94
62708;BME280;48769;51.624;5.886;2023-05-01T06:48:37;101306.59;;;12.78;85.18
62708;BME280;48769;51.624;5.886;2023-05-01T06:51:03;101310.53;;;12.71;85.79
62708;BME280;48769;51.624;5.886;2023-05-01T06:53:28;101304.72;;;12.80;85.49
62708;BME280;48769;51.624;5.886;2023-05-01T06:55:53;101303.84;;;12.80;85.80
62708;BME280;48769;51.624;5.886;2023-05-01T06:58:19;101306.69;;;12.93;85.26
62708;BME280;48769;51.624;5.886;2023-05-01T07:00:44;101312.19;;;13.05;85.37
62708;BME280;48769;51.624;5.886;2023-05-01T07:03:09;101306.84;;;13.23;85.33
62708;BME280;48769;51.624;5.886;2023-05-01T07:05:35;101306.63;;;13.27;83.82
62708;BME280;48769;51.624;5.886;2023-05-01T07:08:01;101307.75;;;13.39;83.99
62708;BME280;48769;51.624;5.886;2023-05-01T07:10:26;101306.19;;;13.35;82.33
62708;BME280;48769;51.624;5.886;2023-05-01T07:12:51;101307.38;;;13.45;81.51
62708;BME280;48769;51.624;5.886;2023-05-01T07:15:17;101304.88;;;13.58;81.00
62708;BME280;48769;51.624;5.886;2023-05-01T07:17:42;101297.97;;;13.55;79.54
62708;BME280;48769;51.624;5.886;2023-05-01T07:20:08;101295.38;;;13.70;79.69
62708;BME280;48769;51.624;5.886;2023-05-01T07:22:34;101296.38;;;13.83;79.24
62708;BME280;48769;51.624;5.886;2023-05-01T07:25:00;101292.75;;;13.84;78.93
62708;BME280;48769;51.624;5.886;2023-05-01T07:27:27;101288.34;;;13.85;78.26
62708;BME280;48769;51.624;5.886;2023-05-01T07:29:54;101289.03;;;13.72;77.92
62708;BME280;48769;51.624;5.886;2023-05-01T07:32:21;101294.03;;;13.63;78.56
62708;BME280;48769;51.624;5.886;2023-05-01T07:34:46;101291.09;;;13.67;80.27
62708;BME280;48769;51.624;5.886;2023-05-01T07:37:12;101286.22;;;13.75;80.14
62708;BME280;48769;51.624;5.886;2023-05-01T07:39:37;101287.84;;;13.78;80.50
62708;BME280;48769;51.624;5.886;2023-05-01T07:42:02;101290.56;;;13.76;79.92
62708;BME280;48769;51.624;5.886;2023-05-01T07:44:28;101288.50;;;13.82;79.82
62708;BME280;48769;51.624;5.886;2023-05-01T07:46:53;101295.06;;;13.90;79.87
62708;BME280;48769;51.624;5.886;2023-05-01T07:49:19;101287.88;;;13.92;79.80
62708;BME280;48769;51.624;5.886;2023-05-01T07:51:44;101288.69;;;14.09;79.44
62708;BME280;48769;51.624;5.886;2023-05-01T07:54:10;101287.69;;;14.25;79.90
62708;BME280;48769;51.624;5.886;2023-05-01T07:56:36;101293.47;;;14.32;79.21
62708;BME280;48769;51.624;5.886;2023-05-01T07:59:01;101290.22;;;14.57;78.48
62708;BME280;48769;51.624;5.886;2023-05-01T08:01:27;101288.72;;;14.53;78.04
62708;BME280;48769;51.624;5.886;2023-05-01T08:03:52;101288.94;;;14.48;77.84
62708;BME280;48769;51.624;5.886;2023-05-01T08:06:17;101291.78;;;14.45;77.78
62708;BME280;48769;51.624;5.886;2023-05-01T08:08:43;101289.31;;;14.42;78.58
62708;BME280;48769;51.624;5.886;2023-05-01T08:11:08;101288.25;;;14.61;79.07
62708;BME280;48769;51.624;5.886;2023-05-01T08:13:34;101293.66;;;14.73;77.76
62708;BME280;48769;51.624;5.886;2023-05-01T08:16:03;101290.41;;;14.97;76.98
62708;BME280;48769;51.624;5.886;2023-05-01T08:18:29;101277.97;;;15.12;76.08
62708;BME280;48769;51.624;5.886;2023-05-01T08:20:55;101277.28;;;15.23;76.09
62708;BME280;48769;51.624;5.886;2023-05-01T08:23:23;101280.41;;;15.56;75.17
62708;BME280;48769;51.624;5.886;2023-05-01T08:25:53;101272.69;;;15.93;74.38
62708;BME280;48769;51.624;5.886;2023-05-01T08:28:18;101269.69;;;15.98;74.06
62708;BME280;48769;51.624;5.886;2023-05-01T08:30:46;101272.19;;;16.13;72.61
62708;BME280;48769;51.624;5.886;2023-05-01T08:33:13;101269.19;;;16.31;73.19
62708;BME280;48769;51.624;5.886;2023-05-01T08:35:39;101268.69;;;16.51;71.98
62708;BME280;48769;51.624;5.886;2023-05-01T08:38:04;101260.03;;;16.60;70.54
62708;BME280;48769;51.624;5.886;2023-05-01T08:40:33;101261.19;;;16.95;70.58
62708;BME280;48769;51.624;5.886;2023-05-01T08:43:00;101263.25;;;17.28;68.14
62708;BME280;48769;51.624;5.886;2023-05-01T08:45:27;101257.97;;;17.39;66.82
62708;BME280;48769;51.624;5.886;2023-05-01T08:47:55;101255.19;;;17.17;66.91
62708;BME280;48769;51.624;5.886;2023-05-01T08:50:23;101260.69;;;17.50;66.71
62708;BME280;48769;51.624;5.886;2023-05-01T08:52:50;101260.81;;;17.73;66.28
62708;BME280;48769;51.624;5.886;2023-05-01T08:55:17;101265.13;;;17.63;66.83
62708;BME280;48769;51.624;5.886;2023-05-01T08:57:44;101260.38;;;17.79;64.89
62708;BME280;48769;51.624;5.886;2023-05-01T09:00:15;101261.28;;;18.37;63.66
62708;BME280;48769;51.624;5.886;2023-05-01T09:02:43;101255.94;;;19.27;60.93
62708;BME280;48769;51.624;5.886;2023-05-01T09:05:09;101247.00;;;19.81;59.87
62708;BME280;48769;51.624;5.886;2023-05-01T09:07:35;101238.06;;;20.13;58.11
62708;BME280;48769;51.624;5.886;2023-05-01T09:10:01;101246.09;;;19.60;58.97
62708;BME280;48769;51.624;5.886;2023-05-01T09:12:27;101254.84;;;19.73;59.70
62708;BME280;48769;51.624;5.886;2023-05-01T09:14:55;101255.34;;;19.56;60.25
62708;BME280;48769;51.624;5.886;2023-05-01T09:17:22;101240.97;;;19.25;58.24
62708;BME280;48769;51.624;5.886;2023-05-01T09:19:49;101248.53;;;18.97;59.99
62708;BME280;48769;51.624;5.886;2023-05-01T09:22:16;101256.22;;;19.02;59.94
62708;BME280;48769;51.624;5.886;2023-05-01T09:24:43;101245.41;;;19.47;59.40
62708;BME280;48769;51.624;5.886;2023-05-01T09:27:11;101246.97;;;19.49;59.24
62708;BME280;48769;51.624;5.886;2023-05-01T09:29:44;101242.13;;;19.75;58.72
62708;BME280;48769;51.624;5.886;2023-05-01T09:32:17;101240.41;;;18.99;59.22
62708;BME280;48769;51.624;5.886;2023-05-01T09:34:45;101246.72;;;19.09;60.10
62708;BME280;48769;51.624;5.886;2023-05-01T09:37:37;101236.13;;;19.51;57.67
62708;BME280;48769;51.624;5.886;2023-05-01T09:40:08;101240.03;;;19.79;59.27
62708;BME280;48769;51.624;5.886;2023-05-01T09:42:37;101234.06;;;19.43;58.17
62708;BME280;48769;51.624;5.886;2023-05-01T09:45:11;101234.63;;;19.58;60.61
62708;BME280;48769;51.624;5.886;2023-05-01T09:47:43;101229.03;;;19.93;57.31
62708;BME280;48769;51.624;5.886;2023-05-01T09:50:12;101221.69;;;20.16;55.89
62708;BME280;48769;51.624;5.886;2023-05-01T09:52:52;101222.97;;;20.43;54.95
62708;BME280;48769;51.624;5.886;2023-05-01T09:55:18;101236.03;;;20.57;55.72
62708;BME280;48769;51.624;5.886;2023-05-01T09:57:45;101220.25;;;20.54;53.85
62708;BME280;48769;51.624;5.886;2023-05-01T10:00:14;101226.78;;;20.19;54.84
62708;BME280;48769;51.624;5.886;2023-05-01T10:02:47;101227.69;;;20.29;55.33
62708;BME280;48769;51.624;5.886;2023-05-01T10:05:12;101230.91;;;20.44;56.42
62708;BME280;48769;51.624;5.886;2023-05-01T10:07:39;101231.66;;;19.72;55.67
62708;BME280;48769;51.624;5.886;2023-05-01T10:10:18;101239.16;;;19.90;55.76
62708;BME280;48769;51.624;5.886;2023-05-01T10:12:44;101229.84;;;20.15;55.48
62708;BME280;48769;51.624;5.886;2023-05-01T10:15:09;101230.63;;;20.47;54.77
62708;BME280;48769;51.624;5.886;2023-05-01T10:17:37;101227.38;;;20.74;53.74
62708;BME280;48769;51.624;5.886;2023-05-01T10:20:03;101231.41;;;20.90;53.31
62708;BME280;48769;51.624;5.886;2023-05-01T10:22:28;101220.16;;;20.75;52.75
62708;BME280;48769;51.624;5.886;2023-05-01T10:24:53;101222.81;;;20.65;53.10
62708;BME280;48769;51.624;5.886;2023-05-01T10:27:20;101228.34;;;20.43;55.62
62708;BME280;48769;51.624;5.886;2023-05-01T10:29:51;101231.34;;;20.70;55.41
62708;BME280;48769;51.624;5.886;2023-05-01T10:32:17;101225.97;;;20.70;54.49
62708;BME280;48769;51.624;5.886;2023-05-01T10:34:47;101218.72;;;20.61;53.23
62708;BME280;48769;51.624;5.886;2023-05-01T10:37:18;101229.78;;;20.77;53.90
62708;BME280;48769;51.624;5.886;2023-05-01T10:39:45;101220.72;;;21.09;53.66
62708;BME280;48769;51.624;5.886;2023-05-01T10:42:11;101226.13;;;21.29;53.11
62708;BME280;48769;51.624;5.886;2023-05-01T10:44:39;101225.94;;;21.20;53.51
62708;BME280;48769;51.624;5.886;2023-05-01T10:55:46;101218.22;;;21.56;52.69
62708;BME280;48769;51.624;5.886;2023-05-01T10:58:13;101208.03;;;21.50;51.62
62708;BME280;48769;51.624;5.886;2023-05-01T11:00:39;101217.66;;;21.72;53.94
62708;BME280;48769;51.624;5.886;2023-05-01T11:03:34;101208.19;;;21.49;51.26
62708;BME280;48769;51.624;5.886;2023-05-01T11:08:35;101212.78;;;21.17;52.54
62708;BME280;48769;51.624;5.886;2023-05-01T11:14:03;101199.25;;;21.29;51.00
62708;BME280;48769;51.624;5.886;2023-05-01T11:19:05;101197.13;;;21.90;50.47
62708;BME280;48769;51.624;5.886;2023-05-01T11:21:32;101201.78;;;22.17;50.71
62708;BME280;48769;51.624;5.886;2023-05-01T11:23:59;101197.66;;;22.13;50.19
62708;BME280;48769;51.624;5.886;2023-05-01T11:26:24;101195.31;;;22.38;49.83
62708;BME280;48769;51.624;5.886;2023-05-01T11:28:53;101190.84;;;22.19;48.46
62708;BME280;48769;51.624;5.886;2023-05-01T11:31:19;101192.44;;;22.02;49.54
62708;BME280;48769;51.624;5.886;2023-05-01T11:33:45;101184.56;;;21.72;48.93
62708;BME280;48769;51.624;5.886;2023-05-01T11:36:10;101193.03;;;21.77;51.17
62708;BME280;48769;51.624;5.886;2023-05-01T11:38:35;101190.03;;;21.99;49.58
62708;BME280;48769;51.624;5.886;2023-05-01T11:41:02;101179.84;;;21.93;48.88
62708;BME280;48769;51.624;5.886;2023-05-01T11:43:30;101187.22;;;21.91;48.80
62708;BME280;48769;51.624;5.886;2023-05-01T11:45:56;101177.16;;;21.83;47.46
62708;BME280;48769;51.624;5.886;2023-05-01T11:48:27;101177.75;;;21.67;47.21
62708;BME280;48769;51.624;5.886;2023-05-01T11:50:53;101177.81;;;22.14;48.21
62708;BME280;48769;51.624;5.886;2023-05-01T11:53:19;101176.47;;;22.38;46.48
62708;BME280;48769;51.624;5.886;2023-05-01T11:55:45;101182.69;;;22.48;48.21
62708;BME280;48769;51.624;5.886;2023-05-01T11:58:11;101175.38;;;22.31;46.96
62708;BME280;48769;51.624;5.886;2023-05-01T12:00:40;101176.31;;;21.92;47.10
62708;BME280;48769;51.624;5.886;2023-05-01T12:03:10;101171.13;;;22.28;47.38
62708;BME280;48769;51.624;5.886;2023-05-01T12:05:38;101173.47;;;22.51;46.84
62708;BME280;48769;51.624;5.886;2023-05-01T12:08:22;101169.00;;;22.69;46.10
62708;BME280;48769;51.624;5.886;2023-05-01T12:10:50;101163.44;;;22.71;45.21
62708;BME280;48769;51.624;5.886;2023-05-01T12:13:16;101165.94;;;22.82;45.34
62708;BME280;48769;51.624;5.886;2023-05-01T12:15:43;101166.00;;;22.90;48.14
62708;BME280;48769;51.624;5.886;2023-05-01T12:18:10;101156.34;;;22.97;45.57
62708;BME280;48769;51.624;5.886;2023-05-01T12:20:40;101163.19;;;22.64;47.46
62708;BME280;48769;51.624;5.886;2023-05-01T12:23:08;101174.41;;;22.59;48.68
62708;BME280;48769;51.624;5.886;2023-05-01T12:25:35;101169.28;;;22.29;48.46
62708;BME280;48769;51.624;5.886;2023-05-01T12:28:02;101169.63;;;21.97;48.81
62708;BME280;48769;51.624;5.886;2023-05-01T12:30:31;101178.31;;;21.90;50.84
62708;BME280;48769;51.624;5.886;2023-05-01T12:32:57;101188.50;;;21.77;50.86
62708;BME280;48769;51.624;5.886;2023-05-01T12:35:32;101181.31;;;21.58;50.07
62708;BME280;48769;51.624;5.886;2023-05-01T12:37:57;101183.72;;;21.61;51.36
62708;BME280;48769;51.624;5.886;2023-05-01T12:40:24;101181.31;;;21.78;49.78
62708;BME280;48769;51.624;5.886;2023-05-01T12:42:54;101180.31;;;21.79;49.45
62708;BME280;48769;51.624;5.886;2023-05-01T12:45:20;101185.97;;;21.76;48.97
62708;BME280;48769;51.624;5.886;2023-05-01T12:47:46;101179.66;;;22.24;48.49
62708;BME280;48769;51.624;5.886;2023-05-01T12:50:11;101179.19;;;22.38;47.84
62708;BME280;48769;51.624;5.886;2023-05-01T12:52:36;101176.00;;;22.80;46.91
62708;BME280;48769;51.624;5.886;2023-05-01T12:55:03;101177.31;;;23.03;46.83
62708;BME280;48769;51.624;5.886;2023-05-01T12:57:30;101175.28;;;22.78;46.54
62708;BME280;48769;51.624;5.886;2023-05-01T13:00:03;101187.03;;;22.59;49.00
62708;BME280;48769;51.624;5.886;2023-05-01T13:02:31;101201.09;;;21.77;49.07
62708;BME280;48769;51.624;5.886;2023-05-01T13:05:07;101196.97;;;21.92;50.00
62708;BME280;48769;51.624;5.886;2023-05-01T13:07:34;101200.34;;;22.13;49.98
62708;BME280;48769;51.624;5.886;2023-05-01T13:10:00;101198.22;;;22.27;47.84
62708;BME280;48769;51.624;5.886;2023-05-01T13:12:27;101206.00;;;22.10;47.48
62708;BME280;48769;51.624;5.886;2023-05-01T13:14:53;101199.78;;;22.20;47.59
62708;BME280;48769;51.624;5.886;2023-05-01T13:17:24;101191.31;;;21.95;46.73